首页
METAR-TAF:

METAR-TAF

机场 :

蒙特瑞Del Norte, 墨西哥

纬度: 25-52N, 经度: 100-14W, 海拔: 448米

当前天气观测

该预报发布于28分钟前的21:50 UTC
风速9节,风向北转东北
温度 42°C
湿度 27%
气压 1005 hPa
能見度: 12.9公里
天空无云

METAR: MMAN 262150Z 03009KT 8SM SKC 42/19 A2969 RMK HZY ISOL SC

时间: 17:18 (22:18 UTC)

预报

该预报发布于5小时和9分钟前的17:09 UTC
预报有效从26日的 18点(UTC)到 27日的 18点(UTC)
风速10节,风向东南
能見度: 8.0公里
天空无云
从 26日的 2100点(UTC)
风速15节,风向东南
能見度: 9.7公里
散云层高于3000英尺, 积雨云.
短暂存在
从 26日的 22点(UTC)到 27日的 02点(UTC)
能見度: 8.0公里
多云层高于2500英尺, 积雨云.
雷暴, 雨
从 27日的 0300点(UTC)
风速10节,风向东转东南
能見度: 10公里
散云层高于3000英尺
从 27日的 0800点(UTC)
风速5节,风向东南
能見度: 8.0公里
散云层高于20000英尺
从 27日的 1200点(UTC)
风速5节,风向东转东南
能見度: 10公里
多云层高于2000英尺

TAF: MMAN 261709Z 2618/2718 13010KT 5SM HZ SKC FM262100 13015KT 6SM HZ SCT030CB TEMPO 2622/2702 5SM TSRA BKN025CB FM270300 12010KT P6SM SCT030 FM270800 13005KT 5SM HZ SCT200 FM271200 12005KT P6SM BKN020

超过4000个机场的气象观测和天气预报(METAR&TAF报告)。

可查询的气象台以黄色和红色小点在地图上表示。

将鼠标移到小点上方,可查看气象台名称。

然后点击查看天气观测和预报。

如需切换地图:点击带黑十字的绿色按钮放大地图;点击带横线的绿色按钮缩小地图;或者点击绿色箭头查看邻近地区的地图。


METAR-TAF: